createdAt,value
2019-04-11T00:00:27.696Z,-0.37
2019-04-11T00:02:53.594Z,-0.40
2019-04-11T00:05:19.463Z,-0.42
2019-04-11T00:07:46.699Z,-0.46
2019-04-11T00:10:14.404Z,-0.47
2019-04-11T00:12:40.961Z,-0.49
2019-04-11T00:15:07.163Z,-0.49
2019-04-11T00:17:34.117Z,-0.49
2019-04-11T00:20:00.072Z,-0.49
2019-04-11T00:22:25.998Z,-0.49
2019-04-11T00:24:51.872Z,-0.52
2019-04-11T00:27:17.755Z,-0.54
2019-04-11T00:29:44.784Z,-0.55
2019-04-11T00:32:12.197Z,-0.56
2019-04-11T00:34:39.278Z,-0.60
2019-04-11T00:37:05.370Z,-0.62
2019-04-11T00:39:31.931Z,-0.63
2019-04-11T00:41:58.616Z,-0.63
2019-04-11T00:44:25.120Z,-0.66
2019-04-11T00:46:50.988Z,-0.68
2019-04-11T00:49:16.929Z,-0.69
2019-04-11T00:51:42.872Z,-0.71
2019-04-11T00:54:08.848Z,-0.73
2019-04-11T00:56:34.842Z,-0.77
2019-04-11T00:59:00.932Z,-0.79
2019-04-11T01:01:28.019Z,-0.79
2019-04-11T01:03:53.936Z,-0.80
2019-04-11T01:06:20.413Z,-0.80
2019-04-11T01:08:46.407Z,-0.84
2019-04-11T01:11:12.262Z,-0.85
2019-04-11T01:13:45.604Z,-0.87
2019-04-11T01:16:09.056Z,-0.89
2019-04-11T01:18:36.147Z,-0.89
2019-04-11T01:21:02.264Z,-0.89
2019-04-11T01:23:29.160Z,-0.91
2019-04-11T01:25:55.152Z,-0.92
2019-04-11T01:28:21.262Z,-0.93
2019-04-11T01:30:49.300Z,-0.94
2019-04-11T01:33:15.751Z,-0.97
2019-04-11T01:35:41.849Z,-0.99
2019-04-11T01:38:08.287Z,-1.00
2019-04-11T01:40:34.584Z,-1.02
2019-04-11T01:43:01.814Z,-1.04
2019-04-11T01:45:27.784Z,-1.06
2019-04-11T01:47:55.673Z,-1.48
2019-04-11T01:50:25.048Z,-1.09
2019-04-11T01:52:51.117Z,-1.11
2019-04-11T01:55:16.995Z,-1.15
2019-04-11T01:57:43.574Z,-1.17
2019-04-11T02:00:13.680Z,-1.20
2019-04-11T02:02:50.741Z,-1.23
2019-04-11T02:05:25.185Z,-1.24
2019-04-11T02:07:51.417Z,-1.25
2019-04-11T02:10:17.468Z,-1.29
2019-04-11T02:12:43.619Z,-1.32
2019-04-11T02:15:10.276Z,-1.35
2019-04-11T02:17:37.016Z,-1.36
2019-04-11T02:20:04.863Z,-1.39
2019-04-11T02:22:35.383Z,-1.42
2019-04-11T02:25:14.989Z,-1.44
2019-04-11T02:27:42.276Z,-1.50
2019-04-11T02:30:11.181Z,-1.53
2019-04-11T02:32:37.635Z,-1.57
2019-04-11T02:35:06.489Z,-1.61
2019-04-11T02:37:32.097Z,-1.63
2019-04-11T02:40:00.128Z,-1.66
2019-04-11T02:42:27.732Z,-1.73
2019-04-11T02:45:10.586Z,-1.77
2019-04-11T02:47:25.302Z,-1.83
2019-04-11T02:49:49.630Z,-1.91
2019-04-11T02:52:17.419Z,-1.96
2019-04-11T02:54:45.048Z,-1.99
2019-04-11T02:57:12.065Z,-1.98
2019-04-11T02:59:38.967Z,-2.00
2019-04-11T03:02:07.101Z,-2.02
2019-04-11T03:04:34.663Z,-2.04
2019-04-11T03:07:01.242Z,-2.06
2019-04-11T03:09:28.971Z,-2.05
2019-04-11T03:11:56.646Z,-2.04
2019-04-11T03:14:23.343Z,-2.06
2019-04-11T03:16:59.704Z,-2.08
2019-04-11T03:19:29.645Z,-2.11
2019-04-11T03:21:46.880Z,-2.12
2019-04-11T03:24:13.204Z,-2.13
2019-04-11T03:26:41.140Z,-2.14
2019-04-11T03:29:08.760Z,-2.16
2019-04-11T03:32:13.988Z,-2.19
2019-04-11T03:34:55.664Z,-2.22
2019-04-11T03:37:13.571Z,-2.24
2019-04-11T03:39:14.808Z,-2.27
2019-04-11T03:41:42.808Z,-2.28
2019-04-11T03:44:04.271Z,-2.29
2019-04-11T03:46:38.099Z,-2.30
2019-04-11T03:49:00.501Z,-2.29
2019-04-11T03:51:18.806Z,-2.31
2019-04-11T03:53:47.224Z,-2.35
2019-04-11T03:56:14.036Z,-2.36
2019-04-11T03:58:41.734Z,-2.40
2019-04-11T04:01:10.889Z,-2.40
2019-04-11T04:03:36.774Z,-2.43
2019-04-11T04:06:04.492Z,-2.42
2019-04-11T04:08:31.512Z,-2.42
2019-04-11T04:11:09.308Z,-2.45
2019-04-11T04:13:38.761Z,-2.47
2019-04-11T04:16:27.441Z,-2.49
2019-04-11T04:18:48.585Z,-2.51
2019-04-11T04:21:22.706Z,-2.53
2019-04-11T04:23:49.648Z,-2.54
2019-04-11T04:26:16.899Z,-2.53
2019-04-11T04:28:43.100Z,-2.54
2019-04-11T04:31:09.746Z,-2.53
2019-04-11T04:33:39.474Z,-2.52
2019-04-11T04:36:08.047Z,-2.50
2019-04-11T04:38:33.779Z,-2.51
2019-04-11T04:41:16.842Z,-2.49
2019-04-11T04:43:31.266Z,-2.49
2019-04-11T04:46:11.461Z,-2.46
2019-04-11T04:48:26.984Z,-2.46
2019-04-11T04:50:56.319Z,-2.46
2019-04-11T04:53:22.377Z,-2.43
2019-04-11T04:55:50.040Z,-2.43
2019-04-11T04:58:17.808Z,-2.40
2019-04-11T05:00:43.840Z,-2.39
2019-04-11T05:03:10.298Z,-2.38
2019-04-11T05:05:38.079Z,-2.36
2019-04-11T05:08:05.956Z,-2.34
2019-04-11T05:10:32.755Z,-2.31
2019-04-11T05:12:59.345Z,-2.31
2019-04-11T05:15:26.150Z,-2.28
2019-04-11T05:17:53.358Z,-2.26
2019-04-11T05:20:19.752Z,-2.22
2019-04-11T05:22:47.165Z,-2.21
2019-04-11T05:25:14.678Z,-2.19
2019-04-11T05:27:41.833Z,-2.16
2019-04-11T05:30:08.389Z,-2.14
2019-04-11T05:32:35.429Z,-2.11
2019-04-11T05:35:02.751Z,-2.10
2019-04-11T05:37:29.231Z,-2.07
2019-04-11T05:39:55.135Z,-2.04
2019-04-11T05:42:24.977Z,-2.01
2019-04-11T05:44:49.953Z,-1.97
2019-04-11T05:47:18.499Z,-1.95
2019-04-11T05:49:48.647Z,-1.90
2019-04-11T05:52:15.651Z,-1.87
2019-04-11T05:54:50.896Z,-1.84
2019-04-11T05:57:22.085Z,-1.80
2019-04-11T05:59:50.938Z,-1.75
2019-04-11T06:02:31.192Z,-1.72
2019-04-11T06:05:02.738Z,-1.67
2019-04-11T06:07:49.942Z,-1.63
2019-04-11T06:10:19.943Z,-1.59
2019-04-11T06:12:56.917Z,-1.56
2019-04-11T06:15:25.000Z,-1.52
2019-04-11T06:17:51.499Z,-1.48
2019-04-11T06:20:35.711Z,-1.43
2019-04-11T06:23:04.846Z,-1.38
2019-04-11T06:25:38.188Z,-1.34
2019-04-11T06:28:06.213Z,-1.28
2019-04-11T06:30:36.778Z,-1.23
2019-04-11T06:33:04.671Z,-1.19
2019-04-11T06:35:50.406Z,-1.15
2019-04-11T06:38:34.429Z,-1.11
2019-04-11T06:41:02.467Z,-1.07
2019-04-11T06:43:40.397Z,-1.03
2019-04-11T06:46:17.019Z,-0.98
2019-04-11T06:48:45.520Z,-0.93
2019-04-11T06:51:13.597Z,-0.89
2019-04-11T06:53:42.058Z,-0.85
2019-04-11T06:56:12.591Z,-0.81
2019-04-11T06:58:43.678Z,-0.77
2019-04-11T07:01:11.985Z,-0.73
2019-04-11T07:03:40.600Z,-0.68
2019-04-11T07:06:08.776Z,-0.64
2019-04-11T07:08:53.106Z,-0.59
2019-04-11T07:11:38.416Z,-0.55
2019-04-11T07:14:23.187Z,-0.50
2019-04-11T07:17:09.549Z,-0.44
2019-04-11T07:19:45.912Z,-0.40
2019-04-11T07:22:30.524Z,-0.33
2019-04-11T07:24:58.501Z,-0.28
2019-04-11T07:27:24.322Z,-0.22
2019-04-11T07:29:54.954Z,-0.18
2019-04-11T07:32:22.121Z,-0.13
2019-04-11T07:35:08.694Z,-0.08
2019-04-11T07:37:36.465Z,0.00
2019-04-11T07:40:15.299Z,0.07
2019-04-11T07:42:49.813Z,0.12
2019-04-11T07:45:23.066Z,0.19
2019-04-11T07:48:07.261Z,0.26
2019-04-11T07:50:33.618Z,0.33
2019-04-11T07:53:02.011Z,0.39
2019-04-11T07:55:29.842Z,0.44
2019-04-11T07:57:57.886Z,0.49
2019-04-11T08:00:44.272Z,0.55
2019-04-11T08:03:07.343Z,0.63
2019-04-11T08:05:41.075Z,0.69
2019-04-11T08:08:27.014Z,0.75
2019-04-11T08:10:58.133Z,0.82
2019-04-11T08:13:26.282Z,0.89
2019-04-11T08:16:10.830Z,0.96
2019-04-11T08:18:41.227Z,1.03
2019-04-11T08:21:26.210Z,1.07
2019-04-11T08:23:54.183Z,1.12
2019-04-11T08:26:33.983Z,1.18
2019-04-11T08:29:07.519Z,0.89
2019-04-11T08:31:32.855Z,1.28
2019-04-11T08:33:59.307Z,1.33
2019-04-11T08:36:44.211Z,1.38
2019-04-11T08:39:12.995Z,1.44
2019-04-11T08:41:50.314Z,1.49
2019-04-11T08:44:17.434Z,1.54
2019-04-11T08:46:45.387Z,1.61
2019-04-11T08:49:19.128Z,1.65
2019-04-11T08:51:45.684Z,1.69
2019-04-11T08:54:13.459Z,1.75
2019-04-11T08:56:43.275Z,1.81
2019-04-11T08:59:13.325Z,1.85
2019-04-11T09:01:40.282Z,1.91
2019-04-11T09:04:24.481Z,1.96
2019-04-11T09:06:50.435Z,2.02
2019-04-11T09:09:33.498Z,2.10
2019-04-11T09:12:02.473Z,2.17
2019-04-11T09:14:46.727Z,2.24
2019-04-11T09:17:14.588Z,2.32
2019-04-11T09:19:49.321Z,2.42
2019-04-11T09:22:33.744Z,2.50
2019-04-11T09:25:03.277Z,2.60
2019-04-11T09:27:49.055Z,2.69
2019-04-11T09:30:33.273Z,2.82
2019-04-11T09:33:17.547Z,2.97
2019-04-11T09:36:01.983Z,3.09
2019-04-11T09:38:32.836Z,3.30
2019-04-11T09:41:00.609Z,3.55
2019-04-11T09:43:28.536Z,3.76
2019-04-11T09:45:59.802Z,3.93
2019-04-11T09:48:31.513Z,4.13
2019-04-11T09:50:59.404Z,4.32
2019-04-11T09:53:26.149Z,4.49
2019-04-11T09:55:54.173Z,4.64
2019-04-11T09:58:25.358Z,4.77
2019-04-11T10:01:02.187Z,4.95
2019-04-11T10:03:30.155Z,5.12
2019-04-11T10:06:15.991Z,5.27
2019-04-11T10:08:43.656Z,5.42
2019-04-11T10:11:28.414Z,5.62
2019-04-11T10:13:57.315Z,5.80
2019-04-11T10:16:26.280Z,5.92
2019-04-11T10:18:59.917Z,6.07
2019-04-11T10:21:28.922Z,6.17
2019-04-11T10:24:02.952Z,6.27
2019-04-11T10:26:34.116Z,6.40
2019-04-11T10:29:19.228Z,6.49
2019-04-11T10:31:52.914Z,6.62
2019-04-11T10:34:37.487Z,6.80
2019-04-11T10:37:04.392Z,6.93
2019-04-11T10:39:33.318Z,7.08
2019-04-11T10:42:02.173Z,7.23
2019-04-11T10:44:45.671Z,7.27
2019-04-11T10:47:20.637Z,7.38
2019-04-11T10:50:05.009Z,7.54
2019-04-11T10:52:34.145Z,7.64
2019-04-11T10:55:05.175Z,7.81
2019-04-11T10:57:46.562Z,8.00
2019-04-11T11:00:23.581Z,8.19
2019-04-11T11:03:06.498Z,8.35
2019-04-11T11:05:47.218Z,8.51
2019-04-11T11:08:17.812Z,8.63
2019-04-11T11:10:43.877Z,8.71
2019-04-11T11:13:18.077Z,8.86
2019-04-11T11:15:45.873Z,9.02
2019-04-11T11:18:49.111Z,9.13
2019-04-11T11:20:59.247Z,9.21
2019-04-11T11:23:42.926Z,9.30
2019-04-11T11:26:19.792Z,9.36
2019-04-11T11:28:48.875Z,9.50
2019-04-11T11:31:22.614Z,9.67
2019-04-11T11:33:50.959Z,9.73
2019-04-11T11:36:37.706Z,9.76
2019-04-11T11:39:15.283Z,9.89
2019-04-11T11:41:59.808Z,10.07
2019-04-11T11:44:37.205Z,10.23
2019-04-11T11:47:21.637Z,10.33
2019-04-11T11:49:55.578Z,10.38
2019-04-11T11:52:17.608Z,10.41
2019-04-11T11:54:44.588Z,10.45
2019-04-11T11:57:12.828Z,10.55
2019-04-11T11:59:40.762Z,10.71
2019-04-11T12:02:16.779Z,10.84
2019-04-11T12:04:53.978Z,10.94
2019-04-11T12:07:23.069Z,11.02
2019-04-11T12:10:06.826Z,11.00
2019-04-11T12:12:42.113Z,11.09
2019-04-11T12:15:16.900Z,11.17
2019-04-11T12:18:00.224Z,11.31
2019-04-11T12:20:29.064Z,11.43
2019-04-11T12:22:57.021Z,11.55
2019-04-11T12:25:25.170Z,11.62
2019-04-11T12:27:56.345Z,11.75
2019-04-11T12:30:27.964Z,11.94
2019-04-11T12:32:57.083Z,12.17
2019-04-11T12:35:26.243Z,12.36
2019-04-11T12:37:54.549Z,12.56
2019-04-11T12:40:40.044Z,12.70
2019-04-11T12:43:07.796Z,12.81
2019-04-11T12:45:35.569Z,12.86
2019-04-11T12:48:02.680Z,12.90
2019-04-11T12:50:48.531Z,12.85
2019-04-11T12:53:14.709Z,12.66
2019-04-11T12:55:51.294Z,12.55
2019-04-11T12:58:19.158Z,12.58
2019-04-11T13:00:58.931Z,12.68
2019-04-11T13:03:43.382Z,12.78
2019-04-11T13:06:19.928Z,12.86
2019-04-11T13:09:05.967Z,12.93
2019-04-11T13:11:33.840Z,12.97
2019-04-11T13:14:07.638Z,12.88
2019-04-11T13:16:33.507Z,12.75
2019-04-11T13:19:16.473Z,12.72
2019-04-11T13:21:52.967Z,12.68
2019-04-11T13:24:35.773Z,12.63
2019-04-11T13:27:15.252Z,12.53
2019-04-11T13:29:43.299Z,12.39
2019-04-11T13:32:29.122Z,12.35
2019-04-11T13:34:57.111Z,12.28
2019-04-11T13:37:41.268Z,12.24
2019-04-11T13:40:21.106Z,12.24
2019-04-11T13:42:54.631Z,12.28
2019-04-11T13:45:20.517Z,12.29
2019-04-11T13:48:00.290Z,12.26
2019-04-11T13:50:26.550Z,12.18
2019-04-11T13:53:00.179Z,12.20
2019-04-11T13:55:26.236Z,12.21
2019-04-11T13:58:10.560Z,12.26
2019-04-11T14:00:38.535Z,12.35
2019-04-11T14:03:24.411Z,12.40
2019-04-11T14:05:50.399Z,12.24
2019-04-11T14:08:20.810Z,12.00
2019-04-11T14:11:01.878Z,11.86
2019-04-11T14:13:34.669Z,11.81
2019-04-11T14:16:02.677Z,11.86
2019-04-11T14:18:33.068Z,11.92
2019-04-11T14:21:06.894Z,12.03
2019-04-11T14:23:52.643Z,12.10
2019-04-11T14:26:23.168Z,12.16
2019-04-11T14:28:50.646Z,12.19
2019-04-11T14:31:22.250Z,12.15
2019-04-11T14:33:56.619Z,12.03
2019-04-11T14:36:40.582Z,11.93
2019-04-11T14:39:08.599Z,11.90
2019-04-11T14:41:48.637Z,11.93
2019-04-11T14:44:16.470Z,11.94
2019-04-11T14:47:01.388Z,11.97
2019-04-11T14:49:27.436Z,11.96
2019-04-11T14:52:07.202Z,11.95
2019-04-11T14:54:35.077Z,11.94
2019-04-11T14:57:02.914Z,11.92
2019-04-11T14:59:33.573Z,11.94
2019-04-11T15:02:01.498Z,11.97
2019-04-11T15:04:45.615Z,12.03
2019-04-11T15:07:15.517Z,12.07
2019-04-11T15:09:46.653Z,12.10
2019-04-11T15:12:17.571Z,12.12
2019-04-11T15:14:47.543Z,12.11
2019-04-11T15:17:14.373Z,12.07
2019-04-11T15:19:42.299Z,12.06
2019-04-11T15:22:10.053Z,12.09
2019-04-11T15:24:38.132Z,12.16
2019-04-11T15:27:06.577Z,12.23
2019-04-11T15:29:33.941Z,12.30
2019-04-11T15:32:02.163Z,12.36
2019-04-11T15:34:32.757Z,12.40
2019-04-11T15:37:17.027Z,12.41
2019-04-11T15:39:47.853Z,12.46
2019-04-11T15:42:31.874Z,12.60
2019-04-11T15:44:59.939Z,12.70
2019-04-11T15:47:27.706Z,12.70
2019-04-11T15:50:11.938Z,12.64
2019-04-11T15:52:39.684Z,12.64
2019-04-11T15:55:24.076Z,12.41
2019-04-11T15:57:49.959Z,12.35
2019-04-11T16:00:20.352Z,12.29
2019-04-11T16:02:48.237Z,12.24
2019-04-11T16:05:31.764Z,12.20
2019-04-11T16:08:16.361Z,12.18
2019-04-11T16:10:49.914Z,12.15
2019-04-11T16:13:32.838Z,12.13
2019-04-11T16:16:07.035Z,12.09
2019-04-11T16:18:39.052Z,12.05
2019-04-11T16:21:17.995Z,12.00
2019-04-11T16:23:51.679Z,11.99
2019-04-11T16:26:28.378Z,11.89
2019-04-11T16:28:56.432Z,11.71
2019-04-11T16:31:24.204Z,11.53
2019-04-11T16:33:51.942Z,11.36
2019-04-11T16:36:19.976Z,11.19
2019-04-11T16:38:56.390Z,11.00
2019-04-11T16:41:40.918Z,10.84
2019-04-11T16:44:18.492Z,10.68
2019-04-11T16:47:02.826Z,10.57
2019-04-11T16:49:28.717Z,10.45
2019-04-11T16:51:54.588Z,10.26
2019-04-11T16:54:20.551Z,10.07
2019-04-11T16:56:46.396Z,9.84
2019-04-11T16:59:12.258Z,9.69
2019-04-11T17:01:38.321Z,9.54
2019-04-11T17:04:04.161Z,9.39
2019-04-11T17:06:31.941Z,9.18
2019-04-11T17:08:59.903Z,8.95
2019-04-11T17:11:27.068Z,8.78
2019-04-11T17:13:57.125Z,8.57
2019-04-11T17:16:21.670Z,8.41
2019-04-11T17:18:47.543Z,8.25
2019-04-11T17:21:13.416Z,8.10
2019-04-11T17:23:39.610Z,7.98
2019-04-11T17:26:06.292Z,7.92
2019-04-11T17:28:32.230Z,7.85
2019-04-11T17:30:58.251Z,7.77
2019-04-11T17:33:27.756Z,7.69
2019-04-11T17:35:51.863Z,7.64
2019-04-11T17:38:17.821Z,7.65
2019-04-11T17:40:43.699Z,7.60
2019-04-11T17:43:13.656Z,7.56
2019-04-11T17:45:37.542Z,7.57
2019-04-11T17:48:03.618Z,7.56
2019-04-11T17:50:29.597Z,7.56
2019-04-11T17:52:55.704Z,7.54
2019-04-11T17:55:23.638Z,7.20
2019-04-11T17:57:49.294Z,7.42
2019-04-11T18:00:20.266Z,7.29
2019-04-11T18:02:46.420Z,7.18
2019-04-11T18:05:12.309Z,7.11
2019-04-11T18:07:38.339Z,7.08
2019-04-11T18:10:05.299Z,7.08
2019-04-11T18:12:31.131Z,7.06
2019-04-11T18:14:57.236Z,7.04
2019-04-11T18:17:23.104Z,7.01
2019-04-11T18:19:49.078Z,6.96
2019-04-11T18:22:15.167Z,6.92
2019-04-11T18:24:41.025Z,6.86
2019-04-11T18:27:06.903Z,6.81
2019-04-11T18:29:32.948Z,6.78
2019-04-11T18:31:58.893Z,6.73
2019-04-11T18:34:24.822Z,6.68
2019-04-11T18:36:50.888Z,6.63
2019-04-11T18:39:16.828Z,6.59
2019-04-11T18:41:42.720Z,6.54
2019-04-11T18:44:08.950Z,6.47
2019-04-11T18:46:34.827Z,6.40
2019-04-11T18:49:00.815Z,6.30
2019-04-11T18:51:30.276Z,6.21
2019-04-11T18:53:55.381Z,6.14
2019-04-11T18:56:21.296Z,6.08
2019-04-11T18:58:47.224Z,6.02
2019-04-11T19:01:13.609Z,5.95
2019-04-11T19:03:41.460Z,5.88
2019-04-11T19:06:07.439Z,5.83
2019-04-11T19:08:33.453Z,5.76
2019-04-11T19:10:59.358Z,5.70
2019-04-11T19:13:25.451Z,5.62
2019-04-11T19:15:51.453Z,5.54
2019-04-11T19:18:17.319Z,5.49
2019-04-11T19:20:43.346Z,5.44
2019-04-11T19:23:09.235Z,5.36
2019-04-11T19:25:35.092Z,5.29
2019-04-11T19:28:01.052Z,5.23
2019-04-11T19:30:27.061Z,5.16
2019-04-11T19:32:52.938Z,5.11
2019-04-11T19:35:18.981Z,5.06
2019-04-11T19:37:44.863Z,5.01
2019-04-11T19:40:10.794Z,4.97
2019-04-11T19:42:36.818Z,4.94
2019-04-11T19:45:04.119Z,4.90
2019-04-11T19:47:29.964Z,4.86
2019-04-11T19:49:58.606Z,4.81
2019-04-11T19:52:23.864Z,4.78
2019-04-11T19:54:49.735Z,4.71
2019-04-11T19:57:15.856Z,4.65
2019-04-11T19:59:41.756Z,4.60
2019-04-11T20:02:07.604Z,4.53
2019-04-11T20:04:33.577Z,4.44
2019-04-11T20:06:59.460Z,4.33
2019-04-11T20:09:25.352Z,4.26
2019-04-11T20:11:51.284Z,4.21
2019-04-11T20:14:17.202Z,4.19
2019-04-11T20:16:48.116Z,4.16
2019-04-11T20:19:10.872Z,4.12
2019-04-11T20:21:38.512Z,4.08
2019-04-11T20:24:04.443Z,4.06
2019-04-11T20:26:30.410Z,4.03
2019-04-11T20:28:56.280Z,3.99
2019-04-11T20:31:22.137Z,3.94
2019-04-11T20:33:48.126Z,3.88
2019-04-11T20:36:14.030Z,3.83
2019-04-11T20:38:40.011Z,3.78
2019-04-11T20:41:06.036Z,3.73
2019-04-11T20:43:31.916Z,3.70
2019-04-11T20:45:58.573Z,3.67
2019-04-11T20:48:24.693Z,3.64
2019-04-11T20:50:50.540Z,3.61
2019-04-11T20:53:16.538Z,3.58
2019-04-11T20:55:42.656Z,3.54
2019-04-11T20:58:10.401Z,3.49
2019-04-11T21:00:36.482Z,3.40
2019-04-11T21:03:02.616Z,3.33
2019-04-11T21:05:30.635Z,3.30
2019-04-11T21:07:56.341Z,3.27
2019-04-11T21:10:22.357Z,3.23
2019-04-11T21:12:48.273Z,3.19
2019-04-11T21:15:14.120Z,3.14
2019-04-11T21:17:40.213Z,3.08
2019-04-11T21:20:06.207Z,3.03
2019-04-11T21:22:32.170Z,2.99
2019-04-11T21:24:59.499Z,2.95
2019-04-11T21:27:28.770Z,2.91
2019-04-11T21:29:54.060Z,2.88
2019-04-11T21:32:20.174Z,2.85
2019-04-11T21:34:46.072Z,2.83
2019-04-11T21:37:11.958Z,2.78
2019-04-11T21:39:38.195Z,2.74
2019-04-11T21:42:06.133Z,2.71
2019-04-11T21:44:35.843Z,2.68
2019-04-11T21:46:59.654Z,2.64
2019-04-11T21:49:25.573Z,2.60
2019-04-11T21:51:51.446Z,2.57
2019-04-11T21:54:17.403Z,2.56
2019-04-11T21:56:43.239Z,2.54
2019-04-11T21:59:09.153Z,2.51
2019-04-11T22:01:37.056Z,2.48
2019-04-11T22:04:03.124Z,2.43
2019-04-11T22:06:30.459Z,2.39
2019-04-11T22:08:56.872Z,2.32
2019-04-11T22:11:22.866Z,2.26
2019-04-11T22:13:48.734Z,2.23
2019-04-11T22:16:14.730Z,2.22
2019-04-11T22:18:40.685Z,2.19
2019-04-11T22:21:06.576Z,2.17
2019-04-11T22:23:32.551Z,2.15
2019-04-11T22:25:58.399Z,2.13
2019-04-11T22:28:24.903Z,2.11
2019-04-11T22:30:54.861Z,2.06
2019-04-11T22:33:24.827Z,2.00
2019-04-11T22:35:51.153Z,1.95
2019-04-11T22:38:17.199Z,1.93
2019-04-11T22:40:43.059Z,1.87
2019-04-11T22:43:09.042Z,1.83
2019-04-11T22:45:37.662Z,1.77
2019-04-11T22:48:02.748Z,1.75
2019-04-11T22:50:28.617Z,1.71
2019-04-11T22:52:54.664Z,1.68
2019-04-11T22:55:20.528Z,1.62
2019-04-11T22:57:46.411Z,1.58
2019-04-11T23:00:14.830Z,1.51
2019-04-11T23:02:47.350Z,1.45
2019-04-11T23:05:14.975Z,1.41
2019-04-11T23:07:40.529Z,1.38
2019-04-11T23:10:06.484Z,1.38
2019-04-11T23:12:32.363Z,1.38
2019-04-11T23:14:58.321Z,1.39
2019-04-11T23:17:24.295Z,1.38
2019-04-11T23:19:50.255Z,1.35
2019-04-11T23:22:16.285Z,1.29
2019-04-11T23:24:42.126Z,1.19
2019-04-11T23:27:08.017Z,1.14
2019-04-11T23:29:34.002Z,1.11
2019-04-11T23:31:59.930Z,1.08
2019-04-11T23:34:25.809Z,1.07
2019-04-11T23:36:51.881Z,1.05
2019-04-11T23:39:17.752Z,1.01
2019-04-11T23:41:43.644Z,0.97
2019-04-11T23:44:09.586Z,0.93
2019-04-11T23:46:35.494Z,0.92
2019-04-11T23:49:01.456Z,0.91
2019-04-11T23:51:27.476Z,0.87
2019-04-11T23:53:53.336Z,0.85
2019-04-11T23:56:19.241Z,0.83
2019-04-11T23:58:45.207Z,0.80
